• Join FlightAware (Why Join?)
  • Login
  • US Flag 
08:31PM EDT


 

Airport Tracker/Info


-or-


 

Live Flight TrackerFlight Track Log ✈ DAL6197 ✈ 19-Jul-2013 ✈ KLGA - KBNA

Flight Track Log - Related Links

Times and Time Zones

All times are in EDT time to prevent confusion due to time zone crossing. See the DAL6197 flight status page for this flight to view local times or setup timezone preferences in your user account.

Time Position Orientation Groundspeed Altitude Reporting Facility
EDT Latitude Longitude Course Direction KTS MPH feet Rate Location/Type
10:43PM 40.8333 -73.9167 270° West 201 231 2,500  Level New York TRACON
10:44PM 40.9000 -73.9500 339° North 238 274 5,300 2,400 Climbing New York TRACON
10:45PM 40.9333 -74.0333 298° West 260 299 7,600 2,520 Climbing New York TRACON
10:46PM 40.9000 -74.1333 246° West 270 311 10,400 2,160 Climbing New York TRACON
10:47PM 40.8833 -74.2333 258° West 300 345 12,000 1,920 Climbing New York TRACON
10:48PM 40.7000 -74.7180 270° West  Level FlightAware Approximate
10:48PM 40.9000 -74.3167 285° West 303 349 14,100  Level New York TRACON
10:50PM 40.9225 -74.5306 278° West 313 360 17,000 1,020 Climbing New York Center
10:51PM 40.9358 -74.6331 280° West 318 366 17,000  Level New York Center
10:52PM 40.9528 -74.7547 280° West 318 366 17,000  Level New York Center
10:53PM 40.9658 -74.8572 280° West 318 366 17,000  Level New York Center
10:54PM 40.9208 -74.9533 238° Southwest 298 343 17,000 300 Level New York Center
10:55PM 40.8483 -75.0558 227° Southwest 344 396 17,700 1,080 Climbing New York Center
10:56PM 40.7961 -75.1733 240° Southwest 376 433 19,200 1,860 Climbing New York Center
10:57PM 40.7742 -75.3117 258° West 376 433 21,500 1,800 Climbing New York Center
10:58PM 40.7503 -75.4469 257° West 376 433 23,000 1,560 Climbing New York Center
10:59PM 40.7325 -75.5800 260° West 382 440 24,700 1,320 Climbing New York Center
11:00PM 40.7475 -75.7208 278° West 376 433 25,700 840 Climbing New York Center
11:01PM 40.7619 -75.8725 277° West 396 456 26,500 780 Climbing New York Center
11:02PM 40.7739 -76.0269 276° West 421 484 27,300 780 Climbing New York Center
11:03PM 40.7683 -76.1497 267° West 426 490 28,100 900 Climbing New York Center
11:04PM 40.7294 -76.3164 253° West 426 490 29,100 960 Climbing New York Center
11:05PM 40.6928 -76.4697 253° West 431 496 30,100 900 Climbing New York Center
11:06PM 40.6561 -76.6253 253° West 436 502 31,000 840 Climbing New York Center
11:07PM 40.6214 -76.7756 253° West 436 502 31,900 720 Climbing New York Center
11:08PM 40.5844 -76.9281 252° West 436 502 32,500 660 Climbing New York Center
11:09PM 40.5614 -77.0872 259° West 441 507 33,300 900 Climbing New York Center
11:10PM 40.5819 -77.2475 280° West 441 507 34,300 1,020 Climbing New York Center
11:11PM 40.6061 -77.4139 281° West 433 498 35,400 960 Climbing New York Center
11:13PM 40.6364 -77.7456 277° West 427 491 37,500 780 Climbing Cleveland Center
11:14PM 40.6003 -77.8894 252° West 409 471 38,000 240 Climbing Cleveland Center
11:15PM 40.5578 -78.0361 249° West 414 476 38,000  Level Cleveland Center
11:16PM 40.5192 -78.1794 251° West 427 491 38,000  Level Cleveland Center
11:17PM 40.4783 -78.3231 250° West 432 497 38,000  Level Cleveland Center
11:18PM 40.4372 -78.4661 249° West 432 497 38,000  Level Cleveland Center
11:19PM 40.3981 -78.6064 250° West 427 491 38,000  Level Cleveland Center
11:20PM 40.3608 -78.7467 251° West 422 486 38,000  Level Cleveland Center
11:21PM 40.3233 -78.8839 250° West 412 474 38,000  Level Cleveland Center
11:22PM 40.2858 -79.0236 251° West 412 474 38,000  Level Cleveland Center
11:23PM 40.2458 -79.1633 249° West 412 474 38,000  Level Cleveland Center
11:24PM 40.2058 -79.3028 249° West 412 474 38,000  Level Cleveland Center
11:25PM 40.1700 -79.4419 251° West 412 474 38,000  Level Cleveland Center
11:26PM 40.1317 -79.5839 251° West 412 474 38,000  Level Cleveland Center
11:27PM 40.0972 -79.7064 250° West 412 474 38,000  Level Cleveland Center
11:28PM 40.0586 -79.8481 250° West 412 474 38,000  Level Cleveland Center
11:29PM 40.0156 -79.9867 248° West 412 474 38,000  Level Cleveland Center
11:30PM 39.9725 -80.1253 248° West 412 474 38,000  Level Cleveland Center
11:31PM 39.9292 -80.2608 247° West 412 474 38,000  Level Cleveland Center
11:32PM 39.8878 -80.3992 249° West 412 474 38,000  Level Cleveland Center
11:33PM 39.8442 -80.5372 248° West 412 474 38,000  Level Cleveland Center
11:34PM 39.8075 -80.6442 246° West 409 471 38,000  Level Indianapolis Center
11:35PM 39.7650 -80.7814 248° West 410 472 38,000  Level Indianapolis Center
11:36PM 39.7206 -80.9178 247° West 411 473 38,000  Level Indianapolis Center
11:37PM 39.6772 -81.0539 248° West 410 472 38,000  Level Indianapolis Center
11:38PM 39.6328 -81.1917 247° West 413 475 38,000  Level Indianapolis Center
11:39PM 39.5869 -81.3328 247° West 424 488 38,000  Level Indianapolis Center
11:40PM 39.5314 -81.5050 247° West 434 499 38,000  Level Indianapolis Center
11:41PM 39.4847 -81.6475 247° West 434 499 38,000  Level Indianapolis Center
11:42PM 39.4367 -81.7933 247° West 442 509 38,000  Level Indianapolis Center
11:43PM 39.3886 -81.9378 247° West 441 507 38,000  Level Indianapolis Center
11:44PM 39.3403 -82.0822 247° West 440 506 38,000  Level Indianapolis Center
11:45PM 39.2925 -82.2264 247° West 438 504 38,000  Level Indianapolis Center
11:46PM 39.2456 -82.3678 247° West 434 499 38,000  Level Indianapolis Center
11:47PM 39.1947 -82.5158 246° West 437 503 38,000  Level Indianapolis Center
11:48PM 39.1500 -82.6506 247° West 430 495 38,000  Level Indianapolis Center
11:49PM 39.1017 -82.7922 246° West 434 499 38,000  Level Indianapolis Center
11:50PM 39.0531 -82.9328 246° West 433 498 38,000  Level Indianapolis Center
11:51PM 39.0042 -83.0756 246° West 437 503 38,000  Level Indianapolis Center
11:52PM 38.9494 -83.2333 246° West 436 502 38,000  Level Indianapolis Center
11:53PM 38.8992 -83.3769 246° West 437 503 38,000  Level Indianapolis Center
11:54PM 38.8497 -83.5200 246° West 436 502 38,000  Level Indianapolis Center
11:55PM 38.7978 -83.6614 245° Southwest 436 502 38,000  Level Indianapolis Center
11:56PM 38.7208 -83.7808 230° Southwest 433 498 38,000  Level Indianapolis Center
11:57PM 38.6342 -83.8867 224° Southwest 435 501 38,000  Level Indianapolis Center
11:58PM 38.5483 -83.9911 224° Southwest 431 496 38,000  Level Indianapolis Center
11:59PM 38.4447 -84.1161 223° Southwest 437 503 38,000  Level Indianapolis Center
12:00AM 38.3561 -84.2211 223° Southwest 436 502 38,000  Level Indianapolis Center
12:01AM 38.2683 -84.3261 223° Southwest 434 499 38,000  Level Indianapolis Center
12:02AM 38.1803 -84.4319 223° Southwest 435 501 38,000  Level Indianapolis Center
12:03AM 38.0917 -84.5369 223° Southwest 434 499 38,000  Level Indianapolis Center
12:04AM 38.0039 -84.6408 223° Southwest 433 498 38,000  Level Indianapolis Center
12:05AM 37.9144 -84.7469 223° Southwest 438 504 38,000  Level Indianapolis Center
12:06AM 37.8244 -84.8533 223° Southwest 442 509 38,000 -420 Level Indianapolis Center
12:07AM 37.7347 -84.9589 223° Southwest 441 507 37,200 -1,440 Descending Indianapolis Center
12:08AM 37.6425 -85.0661 223° Southwest 449 517 35,100 -2,160 Descending Indianapolis Center
12:09AM 37.5494 -85.1742 223° Southwest 453 521 32,900 -2,220 Descending Indianapolis Center
12:10AM 37.4550 -85.2822 222° Southwest 457 526 30,700 -2,220 Descending Indianapolis Center
12:11AM 37.3644 -85.3872 223° Southwest 444 511 28,500 -2,400 Descending Indianapolis Center
12:12AM 37.2603 -85.5089 223° Southwest 440 506 25,900 -2,340 Descending Indianapolis Center
12:13AM 37.1764 -85.6039 222° Southwest 434 499 23,800 -2,160 Descending Indianapolis Center
12:14AM 37.0875 -85.6986 220° Southwest 419 482 21,600 -2,220 Descending Indianapolis Center
12:15AM 36.9983 -85.7928 220° Southwest 414 476 19,400 -2,220 Descending Indianapolis Center
12:16AM 36.9117 -85.8814 219° Southwest 402 463 17,200 -2,220 Descending Indianapolis Center
12:17AM 36.8300 -85.9681 220° Southwest 387 445 15,000 -2,280 Descending Indianapolis Center
12:18AM 36.7519 -86.0492 220° Southwest 368 423 12,700 -1,920 Descending Indianapolis Center
12:19AM 36.6664 -86.1406 221° Southwest 366 421 11,000 -840 Descending Memphis Center
12:20AM 36.6019 -86.2058 219° Southwest 357 411 11,000  Level Memphis Center
12:21AM 36.5292 -86.2794 219° Southwest 346 398 11,000  Level Memphis Center
12:22AM 36.4675 -86.3625 227° Southwest 341 392 11,000 -600 Level Memphis Center
12:23AM 36.4264 -86.4469 239° Southwest 312 359 9,800 -1,680 Descending Memphis Center
12:24AM 36.3869 -86.5236 237° Southwest 275 316 7,700 -2,220 Descending Memphis Center
12:25AM 36.3372 -86.5981 230° Southwest 261 300 5,400 -1,920 Descending Memphis Center
12:26AM 36.2753 -86.6242 199° South 245 282 3,900 -1,500 Descending Memphis Center
12:27AM 36.2258 -86.6444 198° South 216 249 2,400 -1,200 Descending Memphis Center
12:28AM 36.1867 -86.6592 197° South 170 196 1,600 -720 Descending Memphis Center
12:29AM 36.1517 -86.6736 198° South 140 161 1,000 -480 Descending Memphis Center
12:30AM 36.1189 -86.6853 196° South 140 161 700 4,980 Descending Memphis Center
12:31AM 36.0836 -86.6997 198° South 140 161 11,000 10,260 Climbing Memphis Center
12:33AM 36.1167 -86.6667 287° West  Level FlightAware Approximate
12:40AM 36.1245 -86.6782 287° West  Level Estimated
12:41AM 36.1245 -86.6782 287° West  Level Estimated
12:42AM 36.1245 -86.6782 287° West  Level Estimated
12:43AM 36.1245 -86.6782 287° West  Level Estimated
12:44AM 36.1245 -86.6782 287° West  Level Estimated
12:45AM 36.1245 -86.6782 287° West  Level Estimated
12:46AM 36.1245 -86.6782 287° West  Level Estimated
12:47AM 36.1245 -86.6782 287° West  Level Estimated
12:48AM 36.1245 -86.6782 287° West  Level Estimated
12:49AM 36.1245 -86.6782 287° West  Level Estimated